Time;durP1;ratioP1;P1;durP2;ratioP2;P2;SDS_P1;SDS_P2;PMS_P1;PMS_P2;Temp;Humidity;BMP_temperature;BMP_pressure;BME280_temperature;BME280_humidity;BME280_pressure;Samples;Min_cycle;Max_cycle;Signal;HPM_P1;HPM_P2
2024/03/12 00:00:41;;;;;;;37.58;24.60;;;8.80;93.20;;;;;;5090820;28;20052;-35
2024/03/12 00:03:09;;;;;;;37.90;24.92;;;8.90;93.20;;;;;;5091845;28;20054;-36
2024/03/12 00:05:36;;;;;;;38.72;25.27;;;8.90;93.20;;;;;;5091690;28;20472;-41
2024/03/12 00:08:02;;;;;;;42.03;25.98;;;8.90;93.20;;;;;;5091509;28;20024;-38
2024/03/12 00:10:28;;;;;;;40.33;25.77;;;8.80;93.10;;;;;;5091445;28;20095;-36
2024/03/12 00:12:54;;;;;;;38.63;25.70;;;8.80;93.20;;;;;;5091271;28;20031;-38
2024/03/12 00:15:22;;;;;;;40.15;24.98;;;8.80;93.20;;;;;;5091382;28;20024;-37
2024/03/12 00:17:49;;;;;;;44.83;26.73;;;8.80;93.20;;;;;;5091368;28;20024;-36
2024/03/12 00:20:24;;;;;;;40.85;26.77;;;8.80;93.20;;;;;;5091304;28;20020;-36
2024/03/12 00:22:50;;;;;;;43.88;26.02;;;8.80;93.20;;;;;;5091347;28;20019;-37
2024/03/12 00:25:20;;;;;;;41.78;25.85;;;8.90;93.30;;;;;;5091371;28;20103;-38
2024/03/12 00:27:46;;;;;;;41.15;27.58;;;8.90;93.30;;;;;;5091331;28;20069;-39
2024/03/12 00:30:13;;;;;;;39.22;26.40;;;8.90;93.30;;;;;;5091429;28;20515;-35
2024/03/12 00:32:40;;;;;;;42.03;27.77;;;8.90;93.30;;;;;;5091665;28;20470;-38
2024/03/12 00:35:07;;;;;;;44.65;27.42;;;8.90;93.30;;;;;;5091210;28;20059;-35
2024/03/12 00:37:33;;;;;;;42.88;26.27;;;8.90;93.30;;;;;;5089898;28;20039;-34
2024/03/12 00:39:59;;;;;;;41.85;27.55;;;8.90;93.30;;;;;;5091081;28;20499;-36
2024/03/12 00:42:26;;;;;;;44.80;26.63;;;9.00;93.30;;;;;;5091332;28;20468;-35
2024/03/12 00:44:51;;;;;;;48.78;29.40;;;8.90;93.20;;;;;;5091076;28;20031;-37
2024/03/12 00:47:17;;;;;;;43.70;27.77;;;8.90;93.30;;;;;;5091180;28;20492;-34
2024/03/12 00:49:45;;;;;;;45.28;27.67;;;9.00;93.30;;;;;;5091366;28;20021;-35
2024/03/12 00:52:11;;;;;;;43.05;27.38;;;8.90;93.30;;;;;;5091225;28;20020;-36
2024/03/12 00:54:37;;;;;;;44.83;28.33;;;8.90;93.30;;;;;;5091310;28;20024;-35
2024/03/12 00:57:05;;;;;;;46.55;28.02;;;9.00;93.30;;;;;;5091220;28;20039;-37
2024/03/12 00:59:34;;;;;;;48.45;28.65;;;8.90;93.30;;;;;;5091008;28;20023;-36
2024/03/12 01:02:01;;;;;;;45.03;27.50;;;8.90;93.30;;;;;;5089582;28;20023;-37
2024/03/12 01:04:27;;;;;;;45.45;28.95;;;8.90;93.30;;;;;;5090949;28;20028;-35
2024/03/12 01:06:52;;;;;;;48.92;28.88;;;8.90;93.30;;;;;;5091068;28;20035;-34
2024/03/12 01:09:20;;;;;;;49.88;29.05;;;8.90;93.30;;;;;;5090021;28;20426;-36
2024/03/12 01:11:46;;;;;;;45.70;29.00;;;8.90;93.30;;;;;;5091170;28;20383;-37
2024/03/12 01:14:14;;;;;;;48.40;28.58;;;8.90;93.40;;;;;;5094513;28;20056;-40
2024/03/12 01:16:40;;;;;;;52.45;30.15;;;8.90;93.40;;;;;;5093237;28;20051;-39
2024/03/12 01:19:07;;;;;;;54.33;31.17;;;8.90;93.40;;;;;;5094463;28;20056;-37
2024/03/12 01:21:36;;;;;;;52.03;29.92;;;8.90;93.40;;;;;;5093178;28;20456;-36
2024/03/12 01:24:04;;;;;;;60.13;31.98;;;8.90;93.40;;;;;;5093011;28;20020;-38
2024/03/12 01:26:30;;;;;;;57.90;31.42;;;8.90;93.40;;;;;;5094274;28;20387;-36
2024/03/12 01:28:56;;;;;;;58.75;31.35;;;8.90;93.40;;;;;;5094493;28;20081;-36
2024/03/12 01:31:22;;;;;;;66.90;33.17;;;8.90;93.40;;;;;;5094417;28;20472;-37
2024/03/12 01:33:49;;;;;;;59.33;31.00;;;8.90;93.50;;;;;;5094305;28;20073;-38
2024/03/12 01:36:20;;;;;;;67.88;36.50;;;8.90;93.50;;;;;;5094002;28;20056;-36
2024/03/12 01:38:48;;;;;;;65.72;33.92;;;8.80;93.40;;;;;;5093813;28;20044;-36
2024/03/12 01:41:17;;;;;;;62.35;31.70;;;8.80;93.50;;;;;;5094101;28;20480;-38
2024/03/12 01:43:43;;;;;;;66.15;32.90;;;8.80;93.50;;;;;;5094139;28;20062;-35
2024/03/12 01:46:12;;;;;;;61.95;31.70;;;8.70;93.50;;;;;;5093772;28;20522;-35
2024/03/12 01:48:40;;;;;;;62.97;33.33;;;8.70;93.60;;;;;;5093834;28;20515;-36
2024/03/12 01:51:06;;;;;;;58.38;29.35;;;8.70;93.60;;;;;;5093803;28;20488;-38
2024/03/12 01:53:33;;;;;;;54.25;29.15;;;8.70;93.60;;;;;;5093788;28;20032;-36
2024/03/12 01:56:00;;;;;;;68.70;30.70;;;8.70;93.60;;;;;;5093947;28;20031;-36
2024/03/12 01:58:26;;;;;;;77.93;33.80;;;8.70;93.70;;;;;;5093967;28;20024;-35
2024/03/12 02:00:52;;;;;;;62.25;30.42;;;8.70;93.70;;;;;;5093637;28;20031;-34
2024/03/12 02:03:18;;;;;;;59.88;31.85;;;8.60;93.70;;;;;;5093800;28;20024;-35
2024/03/12 02:05:46;;;;;;;62.72;31.85;;;8.60;93.70;;;;;;5093643;28;20055;-39
2024/03/12 02:08:13;;;;;;;65.63;31.23;;;8.60;93.80;;;;;;5093794;28;20024;-38
2024/03/12 02:10:39;;;;;;;62.78;31.25;;;8.60;93.80;;;;;;5093488;28;20031;-37
2024/03/12 02:13:05;;;;;;;57.15;29.00;;;8.60;93.80;;;;;;5093281;28;20035;-35
2024/03/12 02:15:34;;;;;;;58.75;30.42;;;8.60;93.80;;;;;;5092508;28;20459;-37
2024/03/12 02:17:59;;;;;;;64.68;30.02;;;8.70;93.80;;;;;;5093233;28;20106;-36
2024/03/12 02:20:26;;;;;;;60.72;30.75;;;8.70;93.80;;;;;;5093177;28;20511;-36
2024/03/12 02:22:53;;;;;;;62.72;31.42;;;8.70;93.80;;;;;;5093102;28;20133;-37
2024/03/12 02:25:19;;;;;;;64.28;31.27;;;8.70;93.80;;;;;;5092214;28;20035;-37
2024/03/12 02:27:44;;;;;;;63.80;33.25;;;8.70;93.80;;;;;;5093123;28;20511;-35
2024/03/12 02:30:10;;;;;;;65.97;31.45;;;8.70;93.80;;;;;;5092942;28;20032;-36
2024/03/12 02:32:38;;;;;;;72.25;31.45;;;8.70;93.80;;;;;;5093055;28;20035;-35
2024/03/12 02:35:05;;;;;;;61.75;32.22;;;8.70;93.80;;;;;;5091566;28;20526;-36
2024/03/12 02:37:30;;;;;;;60.55;31.80;;;8.70;93.80;;;;;;5092982;28;20051;-37
2024/03/12 02:39:56;;;;;;;63.67;30.60;;;8.70;93.80;;;;;;5092815;28;20097;-36
2024/03/12 02:42:21;;;;;;;62.45;31.60;;;8.70;93.80;;;;;;5092874;28;20028;-37
2024/03/12 02:44:47;;;;;;;56.67;29.98;;;8.70;93.80;;;;;;5092651;28;20039;-33
2024/03/12 02:47:13;;;;;;;58.20;30.70;;;8.70;93.80;;;;;;5092726;28;20062;-37
2024/03/12 02:49:38;;;;;;;54.72;29.98;;;8.70;93.80;;;;;;5092666;28;20115;-36
2024/03/12 02:52:04;;;;;;;61.28;32.15;;;8.70;93.80;;;;;;5091276;28;20391;-36
2024/03/12 02:54:30;;;;;;;58.78;30.25;;;8.70;93.80;;;;;;5092476;28;20024;-37
2024/03/12 02:56:55;;;;;;;57.22;30.30;;;8.70;93.80;;;;;;5092597;28;20537;-36
2024/03/12 02:59:21;;;;;;;58.53;29.70;;;8.70;93.80;;;;;;5092564;28;20047;-36
2024/03/12 03:01:47;;;;;;;55.90;29.13;;;8.70;93.80;;;;;;5090980;28;20024;-36
2024/03/12 03:04:12;;;;;;;55.38;29.60;;;8.70;93.80;;;;;;5092531;28;20028;-37
2024/03/12 03:06:38;;;;;;;52.22;28.92;;;8.70;93.80;;;;;;5092279;28;20110;-36
2024/03/12 03:09:09;;;;;;;55.10;29.25;;;8.70;93.80;;;;;;5092526;28;20107;-36
2024/03/12 03:11:35;;;;;;;57.05;30.00;;;8.70;93.80;;;;;;5092062;28;20531;-36
2024/03/12 03:14:01;;;;;;;61.53;30.92;;;8.70;93.70;;;;;;5092172;28;20503;-36
2024/03/12 03:16:27;;;;;;;55.90;29.35;;;8.70;93.70;;;;;;5092079;28;20028;-35
2024/03/12 03:18:57;;;;;;;50.88;28.35;;;8.70;93.80;;;;;;5092111;28;20123;-35
2024/03/12 03:21:25;;;;;;;55.25;28.73;;;8.70;93.80;;;;;;5092466;28;20511;-35
2024/03/12 03:23:51;;;;;;;51.20;27.05;;;8.70;93.80;;;;;;5092430;28;20364;-37
2024/03/12 03:26:17;;;;;;;45.58;26.42;;;8.70;93.80;;;;;;5091991;28;20032;-35
2024/03/12 03:28:43;;;;;;;50.83;27.40;;;8.70;93.80;;;;;;5092527;28;20054;-38
2024/03/12 03:31:10;;;;;;;53.90;27.30;;;8.70;93.80;;;;;;5091982;28;20111;-39
2024/03/12 03:33:38;;;;;;;50.17;25.85;;;8.80;93.80;;;;;;5091766;28;20028;-36
2024/03/12 03:36:04;;;;;;;45.17;25.17;;;8.80;93.80;;;;;;5091892;28;20244;-35
2024/03/12 03:38:29;;;;;;;41.92;25.60;;;8.80;93.80;;;;;;5091686;28;20036;-35
2024/03/12 03:40:56;;;;;;;43.35;24.05;;;8.80;93.80;;;;;;5091800;28;20028;-36
2024/03/12 03:43:21;;;;;;;43.13;23.50;;;8.80;93.80;;;;;;5092097;28;20502;-38
2024/03/12 03:45:47;;;;;;;37.38;22.60;;;8.80;93.80;;;;;;5091619;28;20024;-36
2024/03/12 03:48:13;;;;;;;39.80;23.48;;;8.80;93.80;;;;;;5091782;28;20411;-37
2024/03/12 03:50:40;;;;;;;38.92;22.90;;;8.80;93.70;;;;;;5090550;28;20070;-33
2024/03/12 03:53:08;;;;;;;40.90;23.90;;;8.80;93.70;;;;;;5091762;28;20021;-36
2024/03/12 03:55:38;;;;;;;42.00;23.75;;;8.80;93.70;;;;;;5091577;28;20264;-37
2024/03/12 03:58:06;;;;;;;39.10;23.95;;;8.70;93.70;;;;;;5091375;28;20044;-35
2024/03/12 04:00:35;;;;;;;39.05;23.45;;;8.70;93.80;;;;;;5091218;28;20081;-36
2024/03/12 04:03:02;;;;;;;33.42;22.02;;;8.70;93.80;;;;;;5091436;28;20020;-37
2024/03/12 04:05:28;;;;;;;34.75;21.40;;;8.70;93.90;;;;;;5091430;28;20029;-39
2024/03/12 04:07:54;;;;;;;36.03;20.40;;;8.70;93.90;;;;;;5091662;28;20035;-38
2024/03/12 04:10:22;;;;;;;35.38;19.80;;;8.70;93.90;;;;;;5091471;28;20412;-36
2024/03/12 04:12:48;;;;;;;31.77;20.77;;;8.70;93.90;;;;;;5091297;28;20664;-47
2024/03/12 04:15:14;;;;;;;28.55;18.80;;;8.70;93.90;;;;;;5091626;28;20020;-39
2024/03/12 04:17:43;;;;;;;30.45;19.40;;;8.70;93.90;;;;;;5090052;28;20058;-35
2024/03/12 04:20:09;;;;;;;28.38;17.55;;;8.70;93.90;;;;;;5091507;28;20042;-39
2024/03/12 04:22:38;;;;;;;25.58;16.48;;;8.70;93.90;;;;;;5091691;28;20042;-36
2024/03/12 04:25:05;;;;;;;28.00;17.70;;;8.70;93.90;;;;;;5091866;28;20016;-42
2024/03/12 04:27:31;;;;;;;26.70;17.90;;;8.70;93.90;;;;;;5091640;28;20035;-48
2024/03/12 04:29:57;;;;;;;32.03;18.33;;;8.60;93.90;;;;;;5091309;28;20114;-38
2024/03/12 04:32:22;;;;;;;26.58;16.95;;;8.60;93.90;;;;;;5091296;28;20095;-37
2024/03/12 04:34:48;;;;;;;23.08;16.00;;;8.70;94.00;;;;;;5090939;28;20048;-36
2024/03/12 04:37:13;;;;;;;25.85;16.13;;;8.70;94.00;;;;;;5091369;28;20077;-38
2024/03/12 04:39:39;;;;;;;24.05;16.67;;;8.70;94.00;;;;;;5091082;28;20035;-36
2024/03/12 04:42:05;;;;;;;23.25;15.05;;;8.70;93.90;;;;;;5091123;28;20050;-37
2024/03/12 04:44:32;;;;;;;25.25;15.55;;;8.70;93.90;;;;;;5091007;28;20020;-37
2024/03/12 04:46:58;;;;;;;24.65;15.70;;;8.60;93.90;;;;;;5091963;28;20103;-38
2024/03/12 04:49:25;;;;;;;25.75;15.95;;;8.60;94.00;;;;;;5095446;28;20035;-36
2024/03/12 04:51:51;;;;;;;22.20;15.23;;;8.60;94.00;;;;;;5095194;28;20028;-43
2024/03/12 04:54:20;;;;;;;25.70;14.85;;;8.60;94.00;;;;;;5095256;28;20047;-38
2024/03/12 04:56:46;;;;;;;26.00;16.70;;;8.60;94.00;;;;;;5094846;28;20028;-37
2024/03/12 04:59:15;;;;;;;25.83;15.75;;;8.60;94.00;;;;;;5095272;28;20032;-37
2024/03/12 05:01:45;;;;;;;34.35;18.45;;;8.60;94.00;;;;;;5094815;28;20111;-37
2024/03/12 05:04:15;;;;;;;30.90;17.92;;;8.60;94.00;;;;;;5095004;28;20495;-37
2024/03/12 05:06:41;;;;;;;33.10;18.35;;;8.50;94.00;;;;;;5094737;28;20039;-35
2024/03/12 05:09:06;;;;;;;30.15;16.80;;;8.50;94.00;;;;;;5094760;28;20016;-37
2024/03/12 05:11:33;;;;;;;30.08;16.85;;;8.50;94.00;;;;;;5093261;28;20024;-38
2024/03/12 05:13:59;;;;;;;29.92;17.77;;;8.50;94.10;;;;;;5094292;28;20020;-36
2024/03/12 05:16:28;;;;;;;31.75;17.42;;;8.50;94.10;;;;;;5094622;28;20473;-41
2024/03/12 05:18:54;;;;;;;29.00;17.42;;;8.50;94.10;;;;;;5094509;28;20480;-35
2024/03/12 05:21:21;;;;;;;27.98;17.00;;;8.50;94.00;;;;;;5094287;28;20027;-36
2024/03/12 05:23:48;;;;;;;29.05;17.08;;;8.50;94.00;;;;;;5094501;28;20036;-36
2024/03/12 05:26:17;;;;;;;26.73;16.15;;;8.50;94.00;;;;;;5094450;28;20060;-36
2024/03/12 05:28:43;;;;;;;27.83;16.27;;;8.50;94.00;;;;;;5094404;28;20073;-37
2024/03/12 05:31:20;;;;;;;35.85;19.17;;;8.50;94.00;;;;;;5092838;28;20255;-37
2024/03/12 05:33:47;;;;;;;34.78;18.50;;;8.50;94.00;;;;;;5094183;28;20035;-38
2024/03/12 05:36:14;;;;;;;37.50;18.73;;;8.50;93.90;;;;;;5094025;28;20056;-39
2024/03/12 05:38:55;;;;;;;35.33;17.60;;;8.40;93.90;;;;;;5093858;28;20036;-36
2024/03/12 05:41:29;;;;;;;37.05;19.17;;;8.40;94.00;;;;;;5092778;28;20024;-37
2024/03/12 05:49:23;;;;;;;41.50;18.15;;;8.40;94.00;;;;;;5094245;28;20038;-37
2024/03/12 05:51:49;;;;;;;34.30;17.65;;;8.40;94.00;;;;;;5093805;28;20414;-35
2024/03/12 05:54:15;;;;;;;35.42;18.25;;;8.40;94.00;;;;;;5093620;28;20058;-37
2024/03/12 05:56:40;;;;;;;35.58;18.10;;;8.40;94.00;;;;;;5094057;28;20115;-37
2024/03/12 05:59:07;;;;;;;33.47;17.95;;;8.40;94.00;;;;;;5092551;28;20069;-36
2024/03/12 06:01:32;;;;;;;36.83;18.48;;;8.40;94.00;;;;;;5092066;28;20020;-35
2024/03/12 06:03:58;;;;;;;36.28;18.05;;;8.40;94.00;;;;;;5093769;28;20462;-36
2024/03/12 06:06:24;;;;;;;36.53;17.67;;;8.30;94.00;;;;;;5093750;28;20024;-36
2024/03/12 06:08:49;;;;;;;39.28;17.58;;;8.40;94.00;;;;;;5093412;28;20055;-36
2024/03/12 06:11:16;;;;;;;38.38;17.95;;;8.40;94.00;;;;;;5093506;28;20457;-37
2024/03/12 06:13:43;;;;;;;41.95;18.67;;;8.40;94.00;;;;;;5093313;28;20024;-36
2024/03/12 06:16:09;;;;;;;42.20;18.15;;;8.40;94.00;;;;;;5091955;28;20111;-37
2024/03/12 06:18:35;;;;;;;37.13;18.85;;;8.40;94.00;;;;;;5092049;28;20107;-35
2024/03/12 06:21:01;;;;;;;38.35;18.80;;;8.30;94.00;;;;;;5093267;28;20103;-36
2024/03/12 06:23:27;;;;;;;40.10;18.08;;;8.30;94.00;;;;;;5093167;28;20095;-34
2024/03/12 06:25:53;;;;;;;37.05;18.30;;;8.30;94.10;;;;;;5093349;28;20012;-39
2024/03/12 06:28:25;;;;;;;38.92;18.35;;;8.30;94.10;;;;;;5093475;28;20115;-36
2024/03/12 06:30:51;;;;;;;43.00;19.67;;;8.30;94.00;;;;;;5093121;28;20052;-36
2024/03/12 06:33:17;;;;;;;39.70;17.98;;;8.30;94.00;;;;;;5093189;28;20266;-36
2024/03/12 06:35:43;;;;;;;45.60;18.23;;;8.30;94.00;;;;;;5092885;28;20622;-37
2024/03/12 06:38:09;;;;;;;37.45;17.33;;;8.20;94.00;;;;;;5092922;28;20032;-37
2024/03/12 06:40:34;;;;;;;39.38;17.92;;;8.30;94.10;;;;;;5092892;28;20070;-36
2024/03/12 06:43:00;;;;;;;38.22;18.58;;;8.20;94.00;;;;;;5092942;28;20039;-36
2024/03/12 06:45:27;;;;;;;38.28;18.13;;;8.20;94.10;;;;;;5093272;28;20016;-36
2024/03/12 06:47:55;;;;;;;42.85;19.58;;;8.30;94.10;;;;;;5092927;28;20097;-37
2024/03/12 06:50:27;;;;;;;45.97;20.33;;;8.20;94.00;;;;;;5092590;28;20024;-37
2024/03/12 06:52:53;;;;;;;45.00;20.42;;;8.20;94.00;;;;;;5092763;28;20031;-36
2024/03/12 06:55:23;;;;;;;39.10;18.40;;;8.30;94.10;;;;;;5092603;28;20124;-34
2024/03/12 06:57:54;;;;;;;41.05;18.55;;;8.30;94.10;;;;;;5092777;28;20032;-36
2024/03/12 07:00:32;;;;;;;38.35;19.13;;;8.30;94.10;;;;;;5092499;28;20355;-37
2024/03/12 07:03:03;;;;;;;40.10;18.52;;;8.20;94.00;;;;;;5092843;28;20024;-37
2024/03/12 07:05:29;;;;;;;36.05;18.50;;;8.20;94.10;;;;;;5092394;28;20066;-34
2024/03/12 07:07:55;;;;;;;40.08;19.05;;;8.20;94.10;;;;;;5092499;28;20028;-35
2024/03/12 07:10:22;;;;;;;41.05;17.50;;;8.20;94.10;;;;;;5090683;28;20035;-36
2024/03/12 07:12:48;;;;;;;38.63;17.95;;;8.20;94.10;;;;;;5092316;28;20052;-46
2024/03/12 07:15:16;;;;;;;36.65;17.42;;;8.20;94.00;;;;;;5091095;28;20067;-38
2024/03/12 07:17:42;;;;;;;34.42;17.42;;;8.20;94.10;;;;;;5092072;28;20107;-38
2024/03/12 07:20:11;;;;;;;35.00;17.77;;;8.20;94.10;;;;;;5092523;28;20103;-48
2024/03/12 07:22:37;;;;;;;35.05;17.95;;;8.20;94.10;;;;;;5091972;28;20023;-37
2024/03/12 07:25:06;;;;;;;36.38;18.17;;;8.20;94.00;;;;;;5092343;28;20028;-37
2024/03/12 07:27:31;;;;;;;37.60;17.48;;;8.20;94.00;;;;;;5092320;28;20016;-37
2024/03/12 07:29:59;;;;;;;30.60;16.25;;;8.20;94.10;;;;;;5092071;28;20119;-36
2024/03/12 07:32:24;;;;;;;31.95;17.25;;;8.20;94.10;;;;;;5092008;28;20073;-39
2024/03/12 07:34:50;;;;;;;31.77;16.25;;;8.30;94.10;;;;;;5091824;28;20040;-36
2024/03/12 07:37:17;;;;;;;34.70;16.25;;;8.30;94.10;;;;;;5092030;28;20251;-36
2024/03/12 07:39:43;;;;;;;34.70;16.13;;;8.30;94.00;;;;;;5091855;28;20155;-38
2024/03/12 07:42:18;;;;;;;34.53;16.33;;;8.30;94.00;;;;;;5091891;28;20095;-36
2024/03/12 07:44:47;;;;;;;30.55;15.68;;;8.30;94.00;;;;;;5091783;28;20548;-37
2024/03/12 07:47:13;;;;;;;34.78;15.77;;;8.40;94.00;;;;;;5091926;28;20421;-45
2024/03/12 07:49:39;;;;;;;34.95;17.23;;;8.40;94.00;;;;;;5092146;28;20024;-38
2024/03/12 07:52:05;;;;;;;35.72;17.20;;;8.40;94.00;;;;;;5091795;28;20149;-36
2024/03/12 07:54:31;;;;;;;30.38;15.45;;;8.40;94.00;;;;;;5091645;28;20027;-36
2024/03/12 07:56:57;;;;;;;34.60;16.67;;;8.40;93.90;;;;;;5092061;28;20031;-36
2024/03/12 07:59:23;;;;;;;33.65;16.27;;;8.40;93.90;;;;;;5090583;28;20069;-37
2024/03/12 08:01:57;;;;;;;33.60;16.30;;;8.40;93.90;;;;;;5091468;28;20029;-38
2024/03/12 08:04:26;;;;;;;40.35;15.68;;;8.40;93.90;;;;;;5091922;28;20055;-38
2024/03/12 08:06:52;;;;;;;29.10;15.40;;;8.40;93.90;;;;;;5091810;28;20073;-36
2024/03/12 08:09:18;;;;;;;38.63;16.40;;;8.40;93.90;;;;;;5091530;28;20028;-34
2024/03/12 08:11:48;;;;;;;36.13;16.70;;;8.50;93.90;;;;;;5091381;28;20015;-38
2024/03/12 08:14:14;;;;;;;32.10;15.70;;;8.50;93.90;;;;;;5091725;28;20024;-46
2024/03/12 08:16:40;;;;;;;29.55;16.50;;;8.50;93.80;;;;;;5091588;28;20099;-36
2024/03/12 08:19:06;;;;;;;30.15;16.08;;;8.50;93.80;;;;;;5091542;28;20464;-35
2024/03/12 08:21:32;;;;;;;32.53;16.13;;;8.50;93.90;;;;;;5091388;28;20043;-36
2024/03/12 08:23:59;;;;;;;32.42;16.33;;;8.50;93.90;;;;;;5095669;28;20020;-37
2024/03/12 08:26:28;;;;;;;33.17;17.27;;;8.50;93.90;;;;;;5095490;28;20027;-35
2024/03/12 08:28:55;;;;;;;36.42;16.67;;;8.60;93.90;;;;;;5095571;28;20375;-37
2024/03/12 08:31:22;;;;;;;30.70;16.60;;;8.60;93.90;;;;;;5095527;28;20113;-36
2024/03/12 08:33:48;;;;;;;39.63;17.05;;;8.60;93.90;;;;;;5095376;28;20158;-37
2024/03/12 08:36:14;;;;;;;33.55;16.23;;;8.60;93.80;;;;;;5095002;28;20052;-36
2024/03/12 08:38:40;;;;;;;35.67;17.13;;;8.60;93.80;;;;;;5095366;28;20035;-37
2024/03/12 08:41:09;;;;;;;34.42;17.52;;;8.60;93.80;;;;;;5095262;28;20020;-37
2024/03/12 08:43:36;;;;;;;35.60;17.90;;;8.60;93.80;;;;;;5095263;28;20047;-37
2024/03/12 08:46:03;;;;;;;38.67;15.80;;;8.60;93.80;;;;;;5095248;28;20024;-37
2024/03/12 08:48:28;;;;;;;34.50;16.73;;;8.60;93.80;;;;;;5094903;28;20107;-36
2024/03/12 08:50:56;;;;;;;37.08;16.83;;;8.60;93.80;;;;;;5095046;28;20132;-37
2024/03/12 08:53:21;;;;;;;30.10;15.80;;;8.60;93.80;;;;;;5095105;28;20032;-35
2024/03/12 08:55:47;;;;;;;35.78;16.40;;;8.60;93.80;;;;;;5094925;28;20078;-34
2024/03/12 08:58:13;;;;;;;26.33;15.07;;;8.60;93.80;;;;;;5093583;28;20028;-36
2024/03/12 09:00:41;;;;;;;29.95;15.13;;;8.60;93.80;;;;;;5093639;28;20434;-36
2024/03/12 09:03:07;;;;;;;31.17;16.52;;;8.60;93.80;;;;;;5093504;28;20031;-34
2024/03/12 09:05:34;;;;;;;30.63;15.30;;;8.60;93.80;;;;;;5094655;28;20024;-36
2024/03/12 09:08:03;;;;;;;35.58;15.75;;;8.60;93.80;;;;;;5094614;28;20038;-35
2024/03/12 09:10:30;;;;;;;31.40;15.85;;;8.60;93.80;;;;;;5094502;28;20028;-34
2024/03/12 09:12:56;;;;;;;27.65;15.27;;;8.60;93.80;;;;;;5094566;28;20027;-39
2024/03/12 09:15:22;;;;;;;35.15;16.90;;;8.70;93.90;;;;;;5094638;28;20031;-36
2024/03/12 09:17:48;;;;;;;31.35;16.95;;;8.70;93.80;;;;;;5094463;28;20468;-36
2024/03/12 09:20:14;;;;;;;32.97;18.17;;;8.70;93.80;;;;;;5094834;28;20028;-37
2024/03/12 09:22:44;;;;;;;29.42;16.75;;;8.70;93.80;;;;;;5094421;28;20020;-36
2024/03/12 09:25:10;;;;;;;31.90;17.30;;;8.70;93.90;;;;;;5094532;28;20028;-37
2024/03/12 09:27:39;;;;;;;33.00;16.80;;;8.80;93.80;;;;;;5094275;28;20036;-36
2024/03/12 09:30:05;;;;;;;29.85;16.83;;;8.80;93.80;;;;;;5094399;28;20020;-36
2024/03/12 09:32:31;;;;;;;28.33;15.93;;;8.80;93.80;;;;;;5094296;28;20020;-35
2024/03/12 09:34:57;;;;;;;26.77;15.38;;;8.80;93.80;;;;;;5094176;28;20531;-37
2024/03/12 09:37:23;;;;;;;29.15;15.70;;;8.90;93.90;;;;;;5094134;28;20028;-36
2024/03/12 09:39:51;;;;;;;28.65;15.48;;;9.00;93.80;;;;;;5094091;28;20066;-36
2024/03/12 09:42:20;;;;;;;25.13;15.13;;;9.00;93.70;;;;;;5094154;28;20029;-36
2024/03/12 09:44:46;;;;;;;28.50;16.33;;;9.00;93.70;;;;;;5093990;28;20069;-37
2024/03/12 09:47:12;;;;;;;24.38;14.82;;;9.00;93.70;;;;;;5093895;28;20028;-35
2024/03/12 09:49:40;;;;;;;25.33;15.40;;;8.90;93.60;;;;;;5092700;28;20077;-37
2024/03/12 09:52:06;;;;;;;24.42;14.15;;;8.90;93.60;;;;;;5094001;28;20107;-37
2024/03/12 09:54:34;;;;;;;23.75;13.68;;;8.90;93.60;;;;;;5093930;28;20024;-37
2024/03/12 09:57:01;;;;;;;26.05;14.43;;;8.90;93.70;;;;;;5092634;28;20123;-44
2024/03/12 09:59:26;;;;;;;24.48;13.57;;;8.90;93.70;;;;;;5094253;28;20051;-36
2024/03/12 10:01:52;;;;;;;23.00;13.73;;;8.90;93.80;;;;;;5093436;28;20052;-35
2024/03/12 10:04:18;;;;;;;22.77;13.90;;;8.90;93.80;;;;;;5093871;28;20012;-44
2024/03/12 10:06:45;;;;;;;21.83;13.13;;;8.90;93.70;;;;;;5093468;28;20039;-35
2024/03/12 10:09:17;;;;;;;24.60;13.70;;;9.00;93.70;;;;;;5093674;28;20080;-36
2024/03/12 10:11:46;;;;;;;24.15;13.30;;;8.90;93.70;;;;;;5093368;28;20027;-35
2024/03/12 10:14:17;;;;;;;27.13;15.55;;;8.90;93.60;;;;;;5092172;28;20073;-36
2024/03/12 10:16:43;;;;;;;27.67;15.15;;;8.90;93.60;;;;;;5093374;28;20103;-36
2024/03/12 10:19:17;;;;;;;29.70;15.15;;;8.80;93.50;;;;;;5093459;28;20111;-36
2024/03/12 10:21:44;;;;;;;25.27;15.27;;;8.80;93.50;;;;;;5093594;28;20507;-35
2024/03/12 10:24:21;;;;;;;25.23;15.00;;;8.70;93.50;;;;;;5093345;28;20016;-36
2024/03/12 10:26:48;;;;;;;25.38;13.50;;;8.70;93.60;;;;;;5093176;28;20035;-35
2024/03/12 10:29:18;;;;;;;26.08;14.18;;;8.70;93.60;;;;;;5093295;28;20032;-36
2024/03/12 10:31:44;;;;;;;24.05;14.00;;;8.80;93.60;;;;;;5093226;28;20122;-35
2024/03/12 10:34:19;;;;;;;22.05;13.38;;;8.80;93.60;;;;;;5093134;28;20453;-35
2024/03/12 10:36:46;;;;;;;22.65;14.32;;;8.90;93.60;;;;;;5093363;28;20492;-38
2024/03/12 10:39:23;;;;;;;28.85;14.82;;;9.00;93.50;;;;;;5092899;28;20024;-37
2024/03/12 10:41:55;;;;;;;23.83;13.70;;;9.00;93.50;;;;;;5093083;28;20024;-43
2024/03/12 10:44:21;;;;;;;26.75;14.32;;;9.10;93.50;;;;;;5092237;28;20522;-35
2024/03/12 10:46:48;;;;;;;28.67;14.80;;;9.10;93.40;;;;;;5092874;28;20028;-36
2024/03/12 10:49:17;;;;;;;26.38;14.82;;;9.20;93.40;;;;;;5092697;28;20116;-37
2024/03/12 10:51:44;;;;;;;24.48;15.18;;;9.20;93.40;;;;;;5092677;28;20035;-35
2024/03/12 10:54:13;;;;;;;22.70;14.07;;;9.30;93.40;;;;;;5092786;28;20059;-35
2024/03/12 10:56:41;;;;;;;25.90;15.98;;;9.40;93.40;;;;;;5092796;28;20055;-37
2024/03/12 10:59:10;;;;;;;25.95;16.08;;;9.40;93.30;;;;;;5092990;28;20024;-39
2024/03/12 11:01:36;;;;;;;28.02;15.43;;;9.50;93.20;;;;;;5092252;28;20358;-45
2024/03/12 11:04:03;;;;;;;22.77;14.50;;;9.50;93.10;;;;;;5092608;28;20023;-47
2024/03/12 11:06:30;;;;;;;27.02;16.27;;;9.50;93.10;;;;;;5092525;28;20027;-35
2024/03/12 11:08:56;;;;;;;24.85;15.52;;;9.50;93.00;;;;;;5092992;28;20099;-37
2024/03/12 11:11:23;;;;;;;27.90;16.23;;;9.60;93.00;;;;;;5092501;28;20021;-39
2024/03/12 11:13:52;;;;;;;23.20;15.68;;;9.60;93.00;;;;;;5090783;28;20109;-33
2024/03/12 11:16:20;;;;;;;28.45;15.63;;;9.60;92.90;;;;;;5092308;28;20024;-36
2024/03/12 11:18:48;;;;;;;25.20;14.73;;;9.70;92.90;;;;;;5092367;28;20107;-37
2024/03/12 11:21:30;;;;;;;26.58;14.80;;;9.80;92.90;;;;;;5092158;28;20031;-37
2024/03/12 11:23:56;;;;;;;23.63;15.18;;;9.90;92.80;;;;;;5092340;28;20089;-37
2024/03/12 11:26:34;;;;;;;23.17;14.23;;;9.90;92.70;;;;;;5092198;28;20502;-37
2024/03/12 11:28:59;;;;;;;26.42;16.45;;;10.00;92.70;;;;;;5092403;28;20471;-36
2024/03/12 11:31:38;;;;;;;24.88;15.38;;;10.00;92.60;;;;;;5092109;28;20099;-37
2024/03/12 11:34:04;;;;;;;27.08;15.63;;;10.00;92.60;;;;;;5092081;28;20366;-35
2024/03/12 11:36:31;;;;;;;28.13;15.77;;;10.10;92.50;;;;;;5091695;28;20027;-37
2024/03/12 11:39:15;;;;;;;29.33;16.60;;;10.10;92.50;;;;;;5091716;28;20514;-37
2024/03/12 11:42:05;;;;;;;;;;;10.10;92.30;;;;;;5092323;28;20055;-38
2024/03/12 11:44:47;;;;;;;24.17;14.45;;;10.10;92.40;;;;;;5091722;28;20331;-42
2024/03/12 11:47:36;;;;;;;24.55;15.02;;;10.10;92.30;;;;;;5091951;28;20077;-39
2024/03/12 11:50:07;;;;;;;25.73;15.65;;;10.00;92.30;;;;;;5091558;28;20032;-37
2024/03/12 11:52:34;;;;;;;30.23;16.25;;;10.00;92.30;;;;;;5091700;28;20101;-35
2024/03/12 11:55:03;;;;;;;26.50;16.42;;;10.00;92.30;;;;;;5091243;28;20024;-41
2024/03/12 11:57:30;;;;;;;28.05;16.35;;;9.90;92.40;;;;;;5090754;28;20468;-42
2024/03/12 11:59:56;;;;;;;26.17;14.95;;;9.90;92.60;;;;;;5091688;28;20099;-36
2024/03/12 12:02:23;;;;;;;25.52;15.60;;;10.00;92.30;;;;;;5091542;28;20024;-36
2024/03/12 12:04:53;;;;;;;26.58;15.75;;;9.90;92.30;;;;;;5091545;28;20016;-36
2024/03/12 12:07:25;;;;;;;26.10;15.45;;;10.00;92.30;;;;;;5091316;28;20027;-34
2024/03/12 12:09:52;;;;;;;27.60;16.47;;;10.00;92.30;;;;;;5091617;28;20452;-42
2024/03/12 12:12:18;;;;;;;29.77;16.23;;;10.10;92.40;;;;;;5091882;28;20044;-37
2024/03/12 12:14:47;;;;;;;25.88;16.50;;;10.10;92.10;;;;;;5090143;28;20034;-37
2024/03/12 12:17:23;;;;;;;25.65;16.08;;;10.20;92.10;;;;;;5091635;28;20563;-36
2024/03/12 12:20:13;;;;;;;27.38;16.02;;;10.20;92.00;;;;;;5091728;28;20024;-37
2024/03/12 12:22:49;;;;;;;26.75;16.80;;;10.30;91.90;;;;;;5091800;28;20024;-37
2024/03/12 12:25:19;;;;;;;25.88;16.60;;;10.50;91.80;;;;;;5091291;28;20045;-38
2024/03/12 12:27:46;;;;;;;29.83;17.63;;;10.70;91.60;;;;;;5091453;28;20036;-37
2024/03/12 12:30:14;;;;;;;27.10;17.35;;;10.90;91.00;;;;;;5091426;28;20017;-36
2024/03/12 12:32:42;;;;;;;27.92;16.73;;;11.00;90.90;;;;;;5090174;28;20107;-36
2024/03/12 12:35:12;;;;;;;30.17;18.77;;;11.00;90.70;;;;;;5091280;28;20560;-36
2024/03/12 12:37:39;;;;;;;28.75;17.20;;;10.90;90.50;;;;;;5091513;28;20032;-37
2024/03/12 12:40:09;;;;;;;28.20;18.35;;;10.90;90.40;;;;;;5090975;28;20016;-35
2024/03/12 12:42:38;;;;;;;32.00;17.80;;;10.80;90.40;;;;;;5091523;28;20024;-37